Time;durP1;ratioP1;P1;durP2;ratioP2;P2;SDS_P1;SDS_P2;PMS_P1;PMS_P2;Temp;Humidity;BMP_temperature;BMP_pressure;BME280_temperature;BME280_humidity;BME280_pressure;Samples;Min_cycle;Max_cycle;Signal;HPM_P1;HPM_P2
2022/12/04 00:02:21;;;;;;;68.20;33.30;;;;;;;8.10;76.25;100640.22;5093583;28;20031;-81
2022/12/04 00:04:47;;;;;;;68.75;34.25;;;;;;;9.02;76.47;100786.47;5075647;28;20024;-82
2022/12/04 00:07:12;;;;;;;59.28;29.80;;;;;;;8.68;76.36;100735.13;5093506;28;20600;-81
2022/12/04 00:09:38;;;;;;;61.15;31.50;;;;;;;8.34;76.60;100690.75;5092669;28;20076;-81
2022/12/04 00:12:03;;;;;;;63.30;32.20;;;;;;;8.12;76.38;100654.91;5093138;28;20484;-81
2022/12/04 00:14:29;;;;;;;60.70;31.25;;;;;;;8.98;76.82;100811.44;5093309;28;20020;-82
2022/12/04 00:16:54;;;;;;;55.22;29.80;;;;;;;8.44;76.93;100715.28;5093376;28;20404;-82
2022/12/04 00:19:20;;;;;;;51.70;27.17;;;;;;;8.37;76.50;100687.00;5093436;28;20540;-81
2022/12/04 00:21:45;;;;;;;50.58;25.33;;;;;;;8.45;76.65;100718.75;5093308;28;20579;-81
2022/12/04 00:24:11;;;;;;;45.65;25.70;;;;;;;8.95;76.42;100806.44;5075145;28;20026;-81
2022/12/04 00:26:36;;;;;;;42.63;23.55;;;;;;;8.91;76.77;100794.47;5093287;28;20024;-81
2022/12/04 00:29:02;;;;;;;43.30;23.77;;;;;;;8.42;76.43;100703.22;5093072;28;20031;-81
2022/12/04 00:31:29;;;;;;;53.63;25.38;;;;;;;8.58;76.49;100741.22;5092967;28;20024;-81
2022/12/04 00:33:55;;;;;;;40.97;22.58;;;;;;;8.47;76.08;100712.38;5093006;28;20096;-81
2022/12/04 00:36:22;;;;;;;43.88;24.75;;;;;;;8.97;76.52;100793.13;5093273;28;20099;-81
2022/12/04 00:38:48;;;;;;;39.95;23.88;;;;;;;8.04;76.68;100643.41;5093268;28;20518;-82
2022/12/04 00:41:16;;;;;;;45.33;25.63;;;;;;;8.70;76.24;100748.97;5093015;28;20024;-81
2022/12/04 00:43:42;;;;;;;40.22;23.90;;;;;;;8.96;76.31;100788.81;5074796;28;20013;-82
2022/12/04 00:46:08;;;;;;;42.70;24.65;;;;;;;8.84;76.44;100791.56;5075009;28;20027;-81
2022/12/04 00:48:33;;;;;;;37.60;22.02;;;;;;;8.76;76.59;100762.44;5092956;28;20504;-81
2022/12/04 00:51:17;;;;;;;42.65;23.65;;;;;;;8.99;76.55;100786.75;5092591;28;20107;-81
2022/12/04 00:53:43;;;;;;;42.70;24.45;;;;;;;9.01;76.52;100795.34;5074442;28;20439;-82
2022/12/04 00:56:14;;;;;;;37.92;23.75;;;;;;;9.03;76.45;100793.41;5092675;28;20024;-81
2022/12/04 00:58:40;;;;;;;41.95;24.40;;;;;;;8.84;76.33;100770.47;5092433;28;20409;-81
2022/12/04 01:01:09;;;;;;;41.75;22.83;;;;;;;9.03;76.23;100795.22;5074003;28;20024;-82
2022/12/04 01:03:35;;;;;;;38.25;23.15;;;;;;;8.31;75.87;100701.50;5073713;28;20031;-82
2022/12/04 01:06:01;;;;;;;37.47;21.67;;;;;;;8.56;76.17;100724.72;5092512;28;20027;-82
2022/12/04 01:08:27;;;;;;;38.50;22.63;;;;;;;9.00;76.15;100812.13;5092387;28;20044;-82
2022/12/04 01:10:52;;;;;;;47.63;26.08;;;;;;;8.66;76.17;100747.59;5092308;28;20412;-81
2022/12/04 01:13:18;;;;;;;54.35;27.05;;;;;;;9.01;75.98;100791.88;5074085;28;20027;-80
2022/12/04 01:15:44;;;;;;;41.40;25.77;;;;;;;8.62;75.90;100733.88;5092374;28;20031;-81
2022/12/04 01:18:11;;;;;;;40.88;24.67;;;;;;;7.98;76.07;100639.50;5074037;28;20508;-82
2022/12/04 01:20:36;;;;;;;45.50;24.52;;;;;;;8.68;76.03;100741.22;5092194;28;20484;-81
2022/12/04 01:23:02;;;;;;;42.75;23.42;;;;;;;8.63;75.67;100732.06;5073412;28;20024;-81
2022/12/04 01:25:27;;;;;;;39.50;24.27;;;;;;;8.78;76.12;100765.75;5091724;28;20068;-81
2022/12/04 01:27:53;;;;;;;43.92;25.15;;;;;;;8.46;76.02;100715.97;5073689;28;20020;-81
2022/12/04 01:30:18;;;;;;;41.03;23.63;;;;;;;8.47;75.54;100716.81;5091865;28;20516;-81
2022/12/04 01:32:44;;;;;;;42.80;24.25;;;;;;;8.71;75.95;100740.13;5092316;28;20024;-81
2022/12/04 01:35:09;;;;;;;38.90;23.10;;;;;;;8.39;75.91;100704.31;5091823;28;20024;-80
2022/12/04 01:37:34;;;;;;;46.38;24.63;;;;;;;8.38;76.06;100689.50;5091979;28;20489;-81
2022/12/04 01:40:00;;;;;;;38.97;22.30;;;;;;;8.60;76.34;100738.44;5091807;28;20561;-80
2022/12/04 01:42:26;;;;;;;41.53;25.05;;;;;;;8.98;76.26;100792.16;5073608;28;20027;-81
2022/12/04 01:45:29;;;;;;;46.47;26.73;;;;;;;8.93;75.53;100784.66;5073644;28;20045;-80
2022/12/04 01:47:59;;;;;;;43.90;25.48;;;;;;;7.98;75.93;100634.25;5091563;28;20052;-80
2022/12/04 01:50:25;;;;;;;44.35;25.65;;;;;;;8.82;76.31;100782.97;5091326;28;20024;-81
2022/12/04 01:52:51;;;;;;;42.63;23.65;;;;;;;7.55;75.68;100559.13;5091336;28;20093;-80
2022/12/04 01:55:17;;;;;;;36.85;24.90;;;;;;;8.82;76.03;100769.78;5073518;28;20073;-80
2022/12/04 01:57:44;;;;;;;43.05;25.58;;;;;;;8.01;75.71;100626.09;5072854;28;20557;-80
2022/12/04 02:00:13;;;;;;;42.65;25.88;;;;;;;8.93;75.97;100778.56;5091357;28;20043;-80
2022/12/04 02:02:43;;;;;;;42.05;26.23;;;;;;;8.28;75.68;100680.72;5091284;28;20028;-80
2022/12/04 02:05:12;;;;;;;37.38;23.48;;;;;;;8.16;76.02;100666.00;5091195;28;20397;-80
2022/12/04 02:07:39;;;;;;;42.10;25.55;;;;;;;8.62;75.96;100738.31;5091324;28;20492;-80
2022/12/04 02:10:07;;;;;;;42.42;26.70;;;;;;;8.85;76.15;100773.94;5091311;28;20060;-80
2022/12/04 02:12:51;;;;;;;44.75;26.50;;;;;;;8.91;76.05;100782.13;5073300;28;20116;-80
2022/12/04 02:15:41;;;;;;;41.25;24.38;;;;;;;8.87;75.80;100786.00;5073249;28;20024;-80
2022/12/04 02:18:27;;;;;;;38.72;23.00;;;;;;;8.61;76.28;100732.19;5073382;28;20028;-80
2022/12/04 02:20:58;;;;;;;46.22;25.63;;;;;;;8.92;75.71;100769.84;5091404;28;20107;-80
2022/12/04 02:24:02;;;;;;;37.75;23.73;;;;;;;7.94;76.08;100610.03;5073213;28;20020;-80
2022/12/04 02:26:48;;;;;;;39.88;25.33;;;;;;;8.72;75.97;100732.09;5058239;28;20067;-80
2022/12/04 02:29:46;;;;;;;42.60;23.55;;;;;;;8.98;76.00;100771.09;5091228;28;20058;-80
2022/12/04 02:32:22;;;;;;;35.33;22.20;;;;;;;8.99;75.63;100772.75;5051835;28;20042;-80
2022/12/04 02:35:09;;;;;;;36.80;22.70;;;;;;;8.97;75.51;100775.53;5091346;28;20096;-80
2022/12/04 02:37:38;;;;;;;37.35;22.63;;;;;;;8.03;75.89;100626.78;5095404;28;20028;-81
2022/12/04 02:40:10;;;;;;;40.47;25.13;;;;;;;8.55;76.01;100711.69;5077192;28;20035;-80
2022/12/04 02:42:46;;;;;;;42.60;26.30;;;;;;;8.55;75.56;100715.16;5077445;28;20020;-80
2022/12/04 02:45:39;;;;;;;45.17;27.70;;;;;;;8.55;76.31;100730.94;5095028;28;20496;-81
2022/12/04 02:48:06;;;;;;;;;;;;;;;8.80;76.22;100770.91;5095641;28;20416;-80
2022/12/04 02:50:35;;;;;;;37.33;22.50;;;;;;;8.23;76.24;100675.03;5094927;28;20019;-80
2022/12/04 02:53:42;;;;;;;38.35;23.13;;;;;;;8.65;75.87;100727.50;5076559;28;20032;-80
2022/12/04 02:56:12;;;;;;;37.50;22.40;;;;;;;8.79;75.78;100770.06;5092429;28;20043;-80
2022/12/04 02:58:52;;;;;;;31.13;20.70;;;;;;;8.56;75.69;100726.53;5076514;28;20028;-80
2022/12/04 03:01:22;;;;;;;34.70;20.02;;;;;;;8.90;75.78;100766.47;5094821;28;20060;-80
2022/12/04 03:03:53;;;;;;;37.17;21.33;;;;;;;8.65;75.66;100749.41;5094709;28;20027;-80
2022/12/04 03:06:20;;;;;;;30.65;18.17;;;;;;;8.52;75.74;100727.75;5094809;28;20030;-80
2022/12/04 03:08:51;;;;;;;28.38;19.13;;;;;;;8.91;75.41;100789.22;5094627;28;20044;-80
2022/12/04 03:11:17;;;;;;;28.08;18.35;;;;;;;8.22;75.75;100663.69;5076578;28;20038;-80
2022/12/04 03:14:13;;;;;;;27.45;17.75;;;;;;;8.66;75.74;100744.97;5094647;28;20024;-79
2022/12/04 03:16:41;;;;;;;25.38;17.40;;;;;;;8.86;76.46;100786.16;5094610;28;20024;-80
2022/12/04 03:19:16;;;;;;;24.85;16.80;;;;;;;8.32;76.05;100683.91;5076277;28;20475;-80
2022/12/04 03:21:48;;;;;;;25.60;18.50;;;;;;;8.87;75.75;100769.38;5094310;28;20023;-80
2022/12/04 03:24:29;;;;;;;29.40;17.77;;;;;;;8.55;75.79;100730.13;5094207;28;20055;-80
2022/12/04 03:27:07;;;;;;;27.02;16.73;;;;;;;8.57;75.97;100717.66;5075915;28;20024;-80
2022/12/04 03:29:45;;;;;;;25.92;16.90;;;;;;;8.34;75.72;100679.38;5075828;28;20436;-80
2022/12/04 03:32:10;;;;;;;28.25;18.10;;;;;;;8.90;76.09;100774.38;5094033;28;20031;-80
2022/12/04 03:34:57;;;;;;;23.75;15.77;;;;;;;8.87;75.96;100783.38;5094116;28;20016;-80
2022/12/04 03:37:33;;;;;;;25.58;16.20;;;;;;;8.86;75.90;100781.72;5094069;28;20103;-80
2022/12/04 03:40:09;;;;;;;23.63;16.25;;;;;;;8.86;75.93;100776.44;5076116;28;20119;-80
2022/12/04 03:42:44;;;;;;;22.58;15.73;;;;;;;8.10;75.95;100691.03;5094266;28;20024;-80
2022/12/04 03:45:19;;;;;;;22.02;15.32;;;;;;;8.85;76.16;100774.78;5093468;28;20031;-80
2022/12/04 03:47:57;;;;;;;23.08;15.75;;;;;;;8.69;76.04;100768.38;5093396;28;20095;-80
2022/12/04 03:51:10;;;;;;;22.70;16.20;;;;;;;8.77;75.73;100773.81;5093775;28;20020;-80
2022/12/04 03:53:42;;;;;;;19.75;15.07;;;;;;;8.48;75.61;100714.03;5093893;28;20035;-80
2022/12/04 03:56:15;;;;;;;;;;;;;;;8.81;75.97;100797.09;5095360;28;20031;-81
2022/12/04 03:58:49;;;;;;;20.55;14.63;;;;;;;8.91;76.04;100791.84;5075692;28;19908;-80
2022/12/04 04:01:21;;;;;;;22.15;14.52;;;;;;;8.78;75.57;100780.72;5093738;28;20381;-81
2022/12/04 04:03:52;;;;;;;21.00;13.85;;;;;;;8.52;75.40;100725.13;5093998;28;20408;-81
2022/12/04 04:06:35;;;;;;;21.70;15.68;;;;;;;8.54;75.52;100731.91;5093733;28;20032;-80
2022/12/04 04:09:07;;;;;;;23.10;15.20;;;;;;;7.73;75.41;100606.66;5093294;28;20539;-80
2022/12/04 04:11:44;;;;;;;21.83;14.60;;;;;;;8.88;75.72;100790.31;5093650;28;20066;-80
2022/12/04 04:25:45;;;;;;;24.48;17.45;;;;;;;8.91;75.39;100789.22;5093345;28;20027;-80
2022/12/04 04:28:26;;;;;;;24.95;17.48;;;;;;;8.91;75.39;100784.78;5074958;28;20469;-80
2022/12/04 04:30:53;;;;;;;25.67;15.80;;;;;;;8.87;75.37;100775.47;5093176;28;20492;-80
2022/12/04 04:33:20;;;;;;;25.65;16.60;;;;;;;8.04;75.30;100643.41;5093058;28;20102;-80
2022/12/04 04:36:14;;;;;;;22.35;16.35;;;;;;;8.72;75.48;100763.69;5093235;28;20026;-80
2022/12/04 04:39:09;;;;;;;24.40;16.40;;;;;;;8.40;75.65;100720.94;5074604;28;20439;-80
2022/12/04 04:41:45;;;;;;;27.83;17.98;;;;;;;8.58;75.91;100757.00;5044268;28;20415;-80
2022/12/04 04:44:24;;;;;;;26.90;17.90;;;;;;;7.89;75.83;100638.53;5092889;28;20059;-80
2022/12/04 04:46:55;;;;;;;30.75;19.17;;;;;;;8.24;75.81;100713.53;5074699;28;20106;-80
2022/12/04 04:49:25;;;;;;;33.42;20.27;;;;;;;8.12;75.72;100680.38;5074366;28;20032;-80
2022/12/04 04:51:52;;;;;;;28.33;18.20;;;;;;;8.33;76.07;100720.66;5074294;28;20028;-80
2022/12/04 04:54:19;;;;;;;31.98;19.23;;;;;;;8.78;76.05;100805.25;5092718;28;20125;-80
2022/12/04 04:56:46;;;;;;;32.42;19.58;;;;;;;8.40;76.36;100731.47;5092721;28;20099;-80
2022/12/04 04:59:12;;;;;;;31.77;20.05;;;;;;;8.81;76.13;100796.25;5073568;28;20105;-80
2022/12/04 05:01:39;;;;;;;29.83;18.67;;;;;;;8.44;76.33;100749.50;5074413;28;20241;-80
2022/12/04 05:04:05;;;;;;;30.25;18.10;;;;;;;8.82;76.65;100806.66;5092509;28;20020;-80
2022/12/04 05:06:31;;;;;;;27.88;18.15;;;;;;;8.87;76.37;100796.53;5092370;28;20093;-80
2022/12/04 05:08:57;;;;;;;25.02;17.17;;;;;;;8.86;76.17;100801.94;5092271;28;20044;-80
2022/12/04 05:11:22;;;;;;;26.55;16.73;;;;;;;8.57;76.03;100765.03;5092407;28;20028;-80
2022/12/04 05:13:47;;;;;;;24.73;16.40;;;;;;;7.85;76.30;100639.75;5092176;28;20020;-80
2022/12/04 05:16:14;;;;;;;28.17;18.00;;;;;;;8.50;75.98;100756.84;5073821;28;20020;-80
2022/12/04 05:18:41;;;;;;;27.65;17.98;;;;;;;8.86;76.08;100805.41;5073864;28;20393;-80
2022/12/04 05:21:15;;;;;;;28.20;17.35;;;;;;;7.76;75.90;100622.16;5073866;28;20493;-80
2022/12/04 05:23:41;;;;;;;24.15;17.20;;;;;;;8.88;75.70;100837.72;5091914;28;20024;-79
2022/12/04 05:26:07;;;;;;;30.38;17.85;;;;;;;8.54;76.09;100754.78;5073703;28;20070;-80
2022/12/04 05:28:32;;;;;;;25.75;16.50;;;;;;;8.67;75.91;100789.59;5073747;28;20480;-80
2022/12/04 05:30:59;;;;;;;30.15;17.58;;;;;;;8.74;76.04;100809.13;5091640;28;20023;-80
2022/12/04 05:33:24;;;;;;;28.05;16.95;;;;;;;8.49;75.91;100734.13;5091306;28;20024;-80
2022/12/04 05:36:02;;;;;;;32.80;19.85;;;;;;;8.49;75.68;100734.13;5092002;28;20024;-81
2022/12/04 05:38:27;;;;;;;33.17;18.27;;;;;;;8.13;75.59;100684.69;5092145;28;20059;-81
2022/12/04 05:40:52;;;;;;;30.08;18.15;;;;;;;8.45;76.00;100750.31;5073719;28;20119;-81
2022/12/04 05:43:18;;;;;;;27.30;17.13;;;;;;;8.56;76.17;100774.72;5073819;28;20012;-81
2022/12/04 05:45:44;;;;;;;27.92;17.60;;;;;;;8.69;75.82;100800.81;5100085;28;20020;-82
2022/12/04 05:48:09;;;;;;;25.98;17.83;;;;;;;8.55;76.32;100767.81;5115924;28;20023;-80
2022/12/04 05:50:36;;;;;;;32.30;21.05;;;;;;;8.81;75.89;100815.53;5092923;28;20016;-80
2022/12/04 05:53:02;;;;;;;29.35;17.75;;;;;;;7.57;75.87;100638.69;5073182;28;20076;-80
2022/12/04 05:55:27;;;;;;;30.60;18.38;;;;;;;8.13;76.25;100750.44;5091551;28;20024;-80
2022/12/04 05:57:52;;;;;;;29.90;18.35;;;;;;;8.15;75.73;100737.97;5091523;28;20386;-80
2022/12/04 06:00:18;;;;;;;35.83;21.40;;;;;;;8.48;76.34;100779.00;5091720;28;20034;-80
2022/12/04 06:02:43;;;;;;;35.47;21.30;;;;;;;8.86;76.08;100833.56;5091490;28;20113;-80
2022/12/04 06:05:09;;;;;;;31.10;18.90;;;;;;;8.45;76.00;100779.28;5091523;28;20024;-80
2022/12/04 06:07:34;;;;;;;28.10;18.25;;;;;;;7.61;75.94;100629.56;5091331;28;20020;-80
2022/12/04 06:10:00;;;;;;;27.27;18.15;;;;;;;8.24;75.71;100724.88;5072850;28;20044;-80
2022/12/04 06:12:25;;;;;;;32.92;19.95;;;;;;;8.23;76.04;100733.75;5091471;28;20027;-80
2022/12/04 06:14:50;;;;;;;33.90;20.67;;;;;;;8.80;76.14;100837.56;5091187;28;20028;-80
2022/12/04 06:17:16;;;;;;;35.92;21.63;;;;;;;8.44;76.26;100777.59;5073000;28;20081;-80
2022/12/04 06:19:41;;;;;;;40.97;22.15;;;;;;;8.77;76.52;100840.47;5073247;28;20062;-80
2022/12/04 06:22:07;;;;;;;34.13;21.77;;;;;;;8.59;76.13;100807.84;5091774;28;20123;-80
2022/12/04 06:24:32;;;;;;;36.45;20.65;;;;;;;8.10;76.31;100730.50;5091195;28;20042;-80
2022/12/04 06:26:58;;;;;;;37.33;22.17;;;;;;;8.78;76.64;100865.81;5073033;28;20027;-80
2022/12/04 06:29:24;;;;;;;41.58;21.05;;;;;;;8.80;76.46;100849.91;5072392;28;20028;-79
2022/12/04 06:31:50;;;;;;;38.38;19.75;;;;;;;8.10;76.56;100741.00;5091390;28;20041;-79
2022/12/04 06:34:15;;;;;;;35.88;20.52;;;;;;;8.68;76.18;100846.53;5073038;28;20032;-79
2022/12/04 06:36:41;;;;;;;42.42;22.35;;;;;;;8.49;76.68;100814.88;5091365;28;20066;-79
2022/12/04 06:39:06;;;;;;;45.00;22.95;;;;;;;8.63;76.60;100840.84;5091257;28;20019;-79
2022/12/04 06:41:32;;;;;;;34.03;19.40;;;;;;;8.43;76.81;100812.78;5090993;28;20031;-79
2022/12/04 06:43:57;;;;;;;37.28;20.42;;;;;;;8.32;76.82;100781.28;5091065;28;20028;-79
2022/12/04 06:46:25;;;;;;;40.50;21.92;;;;;;;8.80;76.86;100860.44;5091169;28;20030;-79
2022/12/04 06:48:53;;;;;;;47.10;21.52;;;;;;;8.78;76.90;100863.19;5091088;28;20027;-79
2022/12/04 06:51:26;;;;;;;40.45;18.95;;;;;;;8.46;76.77;100825.69;5072931;28;20025;-79
2022/12/04 06:53:52;;;;;;;39.35;19.38;;;;;;;8.29;76.79;100783.22;5091273;28;20408;-79
2022/12/04 06:56:20;;;;;;;40.53;20.80;;;;;;;8.87;76.86;100872.09;5072957;28;20026;-79
2022/12/04 06:58:47;;;;;;;45.00;23.15;;;;;;;8.47;76.97;100824.72;5091091;28;20020;-79
2022/12/04 07:01:16;;;;;;;47.28;23.30;;;;;;;8.90;76.95;100875.28;5090880;28;20043;-81
2022/12/04 07:03:42;;;;;;;44.33;23.73;;;;;;;8.18;77.04;100751.75;5072896;28;20114;-80
2022/12/04 07:06:19;;;;;;;43.22;22.40;;;;;;;8.90;77.24;100866.56;5091146;28;20012;-80
2022/12/04 07:08:48;;;;;;;33.75;20.00;;;;;;;8.05;77.35;100734.47;5090923;28;20067;-81
2022/12/04 07:11:15;;;;;;;35.13;20.17;;;;;;;8.25;76.87;100773.91;5090978;28;20024;-81
2022/12/04 07:13:40;;;;;;;37.63;21.33;;;;;;;8.28;76.73;100781.53;5090975;28;20493;-81
2022/12/04 07:16:07;;;;;;;35.65;21.30;;;;;;;8.16;77.12;100756.25;5090839;28;20027;-81
2022/12/04 07:18:34;;;;;;;42.88;21.73;;;;;;;8.79;77.17;100869.28;5090804;28;20523;-81
2022/12/04 07:21:03;;;;;;;43.45;22.58;;;;;;;8.33;77.08;100780.31;5090914;28;20073;-81
2022/12/04 07:23:29;;;;;;;39.42;21.45;;;;;;;8.64;77.26;100839.88;5093912;28;20095;-82
2022/12/04 07:25:54;;;;;;;39.10;20.92;;;;;;;8.94;77.30;100894.31;5094298;28;20123;-81
2022/12/04 07:28:20;;;;;;;42.33;20.75;;;;;;;8.33;77.09;100769.78;5094309;28;20027;-79
2022/12/04 07:30:45;;;;;;;31.60;20.00;;;;;;;8.65;77.24;100819.66;5076175;28;20140;-83
2022/12/04 07:33:10;;;;;;;31.95;18.58;;;;;;;8.55;77.37;100809.09;5094376;28;20539;-82
2022/12/04 07:35:36;;;;;;;30.45;18.00;;;;;;;8.89;77.17;100871.00;5076028;28;20523;-81
2022/12/04 07:38:01;;;;;;;26.55;17.33;;;;;;;8.20;77.23;100765.59;5075766;28;20020;-81
2022/12/04 07:40:26;;;;;;;24.55;14.98;;;;;;;8.76;77.07;100883.56;5094244;28;20096;-81
2022/12/04 07:42:52;;;;;;;19.40;12.75;;;;;;;8.47;77.05;100795.75;5094020;28;20095;-81
2022/12/04 07:45:17;;;;;;;21.48;12.48;;;;;;;8.24;77.18;100774.03;5093857;28;20027;-81
2022/12/04 07:47:43;;;;;;;18.75;12.13;;;;;;;8.52;77.18;100825.97;5093858;28;20016;-81
2022/12/04 07:50:08;;;;;;;11.55;8.38;;;;;;;8.64;76.83;100853.03;5093746;28;20099;-81
2022/12/04 07:52:38;;;;;;;9.30;6.25;;;;;;;9.00;76.40;100904.31;5093696;28;20028;-81
2022/12/04 07:55:05;;;;;;;8.30;5.65;;;;;;;9.02;76.47;100891.84;5093823;28;20051;-82
2022/12/04 07:57:31;;;;;;;7.55;5.80;;;;;;;9.01;76.31;100910.41;5075636;28;20107;-81
2022/12/04 07:59:57;;;;;;;8.77;5.75;;;;;;;8.65;76.30;100848.59;5093717;28;20016;-81
2022/12/04 08:02:22;;;;;;;8.13;5.43;;;;;;;9.00;75.84;100904.31;5093719;28;20039;-81
2022/12/04 08:04:48;;;;;;;7.22;5.30;;;;;;;9.00;76.00;100900.84;5093597;28;20103;-83
2022/12/04 08:07:13;;;;;;;7.25;5.63;;;;;;;8.33;75.91;100798.72;5093621;28;20020;-82
2022/12/04 08:09:39;;;;;;;10.40;6.47;;;;;;;8.61;75.92;100842.78;5093286;28;20405;-83
2022/12/04 08:12:04;;;;;;;7.70;5.50;;;;;;;8.39;75.80;100811.38;5093527;28;20016;-83
2022/12/04 08:14:30;;;;;;;6.60;5.03;;;;;;;8.09;75.91;100746.41;5093357;28;20012;-82
2022/12/04 08:16:55;;;;;;;6.80;4.78;;;;;;;8.27;75.41;100771.97;5092696;28;20081;-82
2022/12/04 08:19:21;;;;;;;7.10;5.70;;;;;;;8.93;75.38;100891.81;5093446;28;20489;-81
2022/12/04 08:21:46;;;;;;;8.77;5.30;;;;;;;8.58;75.16;100851.78;5075072;28;20024;-81
2022/12/04 08:24:12;;;;;;;7.50;5.43;;;;;;;9.03;75.51;100887.41;5093319;28;20039;-81
2022/12/04 08:26:37;;;;;;;5.57;4.05;;;;;;;9.07;75.63;100894.06;5075016;28;20030;-81
2022/12/04 08:29:05;;;;;;;5.07;3.95;;;;;;;8.40;75.35;100803.34;5092951;28;20027;-81
2022/12/04 08:31:32;;;;;;;5.93;4.53;;;;;;;9.07;75.50;100894.91;5093659;28;20103;-81
2022/12/04 08:34:00;;;;;;;5.35;3.83;;;;;;;8.19;75.40;100745.50;5092977;28;20489;-81
2022/12/04 08:36:26;;;;;;;7.03;4.40;;;;;;;8.59;75.11;100807.84;5093036;28;20121;-83
2022/12/04 08:38:51;;;;;;;6.07;4.47;;;;;;;8.64;74.95;100839.88;5074655;28;20539;-82
2022/12/04 08:41:20;;;;;;;6.28;4.50;;;;;;;9.09;74.92;100889.50;5074980;28;20024;-82
2022/12/04 08:43:46;;;;;;;3.90;3.30;;;;;;;9.07;74.82;100899.34;5096566;28;20012;-82
2022/12/04 08:46:14;;;;;;;4.85;3.65;;;;;;;8.63;75.02;100825.03;5097723;28;20028;-81
2022/12/04 08:48:40;;;;;;;4.78;3.65;;;;;;;8.70;75.00;100849.03;5092718;28;20041;-81
2022/12/04 08:51:07;;;;;;;5.97;3.83;;;;;;;8.47;75.03;100798.41;5074491;28;20020;-80
2022/12/04 08:53:33;;;;;;;5.32;4.18;;;;;;;8.77;75.65;100851.00;5092572;28;20016;-81
2022/12/04 08:56:02;;;;;;;4.05;2.78;;;;;;;9.02;75.38;100883.13;5074491;28;20523;-81
2022/12/04 08:58:28;;;;;;;3.63;2.90;;;;;;;8.47;75.66;100811.56;5074272;28;20028;-81
2022/12/04 09:00:53;;;;;;;3.13;2.83;;;;;;;8.71;75.51;100840.16;5092399;28;20499;-82
2022/12/04 09:03:20;;;;;;;4.63;3.38;;;;;;;9.03;75.79;100879.50;5092302;28;20016;-81
2022/12/04 09:05:46;;;;;;;3.40;2.97;;;;;;;9.01;75.71;100876.19;5092456;28;20077;-81
2022/12/04 09:08:13;;;;;;;4.13;3.17;;;;;;;8.69;75.19;100819.25;5092260;28;20048;-81
2022/12/04 09:10:38;;;;;;;4.68;4.00;;;;;;;8.99;75.64;100878.94;5091693;28;20050;-81
2022/12/04 09:13:05;;;;;;;6.43;4.90;;;;;;;8.46;75.35;100771.25;5092274;28;20492;-81
2022/12/04 09:15:31;;;;;;;5.63;3.80;;;;;;;8.53;75.58;100771.53;5092370;28;20028;-81
2022/12/04 09:17:57;;;;;;;5.47;4.00;;;;;;;7.53;75.52;100605.75;5074130;28;20115;-81
2022/12/04 09:20:22;;;;;;;4.97;3.60;;;;;;;8.82;75.68;100817.19;5092190;28;20058;-81
2022/12/04 09:22:48;;;;;;;4.68;3.60;;;;;;;8.97;75.39;100865.06;5091999;28;20016;-81
2022/12/04 09:25:13;;;;;;;4.90;3.25;;;;;;;8.72;75.50;100813.72;5091967;28;20020;-81
2022/12/04 09:27:43;;;;;;;5.68;3.80;;;;;;;8.32;75.63;100744.44;5073691;28;20535;-82
2022/12/04 09:30:11;;;;;;;6.28;3.83;;;;;;;8.41;75.32;100757.66;5073762;28;20020;-81
2022/12/04 09:32:37;;;;;;;4.82;3.60;;;;;;;9.18;75.39;100868.44;5092162;28;20027;-81
2022/12/04 09:35:03;;;;;;;5.25;3.97;;;;;;;8.66;75.29;100847.63;5091914;28;20024;-81
2022/12/04 09:37:28;;;;;;;4.97;3.72;;;;;;;9.10;75.35;100870.94;5091889;28;20145;-83
2022/12/04 09:39:54;;;;;;;4.18;2.80;;;;;;;8.69;75.49;100795.53;5073769;28;20103;-82
2022/12/04 09:42:19;;;;;;;4.90;3.35;;;;;;;9.20;75.34;100855.13;5091879;28;20023;-81
2022/12/04 09:45:04;;;;;;;4.57;3.92;;;;;;;8.24;74.98;100695.13;5091355;28;20030;-81
2022/12/04 09:47:38;;;;;;;4.03;3.58;;;;;;;9.20;75.04;100857.75;5091741;28;20032;-81
2022/12/04 09:50:12;;;;;;;4.68;2.97;;;;;;;9.22;75.00;100853.19;5091644;28;20031;-82
2022/12/04 09:52:59;;;;;;;4.35;3.13;;;;;;;9.21;74.88;100846.25;5091512;28;20122;-81
2022/12/04 09:55:39;;;;;;;4.32;3.67;;;;;;;8.63;75.02;100743.44;5090195;28;20047;-81
2022/12/04 09:58:12;;;;;;;5.75;3.33;;;;;;;9.21;74.95;100835.72;5091671;28;20058;-81
2022/12/04 10:00:41;;;;;;;9.50;5.72;;;;;;;8.95;75.22;100808.22;5073545;28;20055;-81
2022/12/04 10:03:14;;;;;;;5.85;3.70;;;;;;;8.54;75.02;100729.28;5073484;28;20016;-81
2022/12/04 10:06:04;;;;;;;5.70;4.18;;;;;;;9.20;75.26;100831.41;5091024;28;20023;-81
2022/12/04 10:09:02;;;;;;;4.13;3.72;;;;;;;9.23;75.14;100826.69;5072970;28;20049;-81
2022/12/04 10:11:45;;;;;;;4.20;3.10;;;;;;;9.29;75.00;100824.47;5063399;28;20051;-81
2022/12/04 10:14:38;;;;;;;7.53;4.15;;;;;;;9.28;75.26;100825.44;5073312;28;20021;-82
2022/12/04 10:17:42;;;;;;;3.92;3.45;;;;;;;9.29;74.58;100812.13;5091405;28;20056;-81
2022/12/04 10:20:23;;;;;;;5.68;2.92;;;;;;;9.27;75.19;100806.19;5090627;28;20107;-81
2022/12/04 10:23:37;;;;;;;5.35;2.85;;;;;;;9.03;74.81;100763.59;5091179;28;20023;-81
2022/12/04 10:26:10;;;;;;;3.25;2.85;;;;;;;8.76;75.10;100722.09;5052420;28;20401;-82
2022/12/04 10:28:43;;;;;;;3.38;2.67;;;;;;;8.50;74.63;100664.72;5091014;28;20031;-81
2022/12/04 10:31:14;;;;;;;3.92;3.20;;;;;;;9.37;74.70;100787.72;5090961;28;20024;-82
2022/12/04 10:33:48;;;;;;;5.50;3.60;;;;;;;9.33;74.44;100789.81;5091189;28;20084;-81
2022/12/04 10:36:20;;;;;;;3.25;2.63;;;;;;;9.28;74.42;100794.66;5091410;28;20095;-81
2022/12/04 10:38:52;;;;;;;;;;;;;;;9.19;75.29;100787.59;5073528;28;20032;-80
2022/12/04 10:41:36;;;;;;;6.45;3.33;;;;;;;9.23;75.01;100795.06;5091502;28;19908;-81
2022/12/04 10:44:02;;;;;;;4.03;3.55;;;;;;;9.22;75.07;100776.78;5091031;28;20074;-81
2022/12/04 10:46:31;;;;;;;3.47;3.10;;;;;;;9.31;75.14;100791.75;5091064;28;20024;-81
2022/12/04 10:49:36;;;;;;;4.32;3.40;;;;;;;9.30;74.63;100790.09;5091303;28;20088;-81
2022/12/04 10:52:03;;;;;;;5.82;4.00;;;;;;;9.31;74.42;100794.38;5078802;28;20048;-81
2022/12/04 10:54:33;;;;;;;8.20;5.55;;;;;;;9.31;74.44;100788.28;5091150;28;20016;-81
2022/12/04 10:57:03;;;;;;;6.57;5.82;;;;;;;9.30;74.78;100783.97;5074209;28;20059;-82
2022/12/04 10:59:29;;;;;;;7.00;5.25;;;;;;;9.27;74.91;100779.00;5076110;28;20408;-81
2022/12/04 11:02:17;;;;;;;6.72;5.55;;;;;;;9.22;74.62;100777.59;5094789;28;20032;-81
2022/12/04 11:04:57;;;;;;;8.07;5.85;;;;;;;8.59;74.51;100677.06;5094662;28;20028;-81
2022/12/04 11:07:29;;;;;;;6.03;4.75;;;;;;;9.13;74.47;100753.88;5094781;28;20084;-81
2022/12/04 11:10:20;;;;;;;5.90;5.00;;;;;;;8.45;74.25;100634.53;5076015;28;20044;-81
2022/12/04 11:13:04;;;;;;;6.57;5.35;;;;;;;9.29;74.66;100756.78;5060737;28;20077;-81
2022/12/04 11:15:33;;;;;;;7.65;5.43;;;;;;;9.33;74.28;100755.53;5072260;28;20039;-81
2022/12/04 11:18:30;;;;;;;6.00;4.63;;;;;;;9.31;74.05;100760.13;5054441;28;20025;-80
2022/12/04 11:21:00;;;;;;;4.10;3.70;;;;;;;9.07;74.07;100717.56;5038045;28;20498;-81
2022/12/04 11:23:32;;;;;;;7.75;5.75;;;;;;;9.36;73.78;100759.69;5036136;28;20533;-80
2022/12/04 11:25:58;;;;;;;;;;;;;;;9.28;73.89;100762.19;5053945;28;20032;-81
2022/12/04 11:28:29;;;;;;;4.60;4.00;;;;;;;8.72;73.58;100647.81;5035990;28;19909;-80
2022/12/04 11:30:58;;;;;;;4.72;3.67;;;;;;;9.17;73.76;100718.38;5053963;28;20501;-80
2022/12/04 11:33:27;;;;;;;7.38;3.83;;;;;;;9.45;73.33;100743.88;5054018;28;20039;-80
2022/12/04 11:35:56;;;;;;;6.47;5.03;;;;;;;9.14;73.36;100698.41;5053738;28;20024;-80
2022/12/04 11:38:25;;;;;;;10.45;6.70;;;;;;;9.38;73.18;100726.13;5035652;28;20052;-80
2022/12/04 11:40:54;;;;;;;11.07;6.85;;;;;;;9.45;72.98;100743.03;5035942;28;20025;-80
2022/12/04 11:43:23;;;;;;;8.77;5.72;;;;;;;9.43;73.17;100753.72;5035814;28;20405;-80
2022/12/04 11:45:58;;;;;;;7.47;5.70;;;;;;;9.40;73.14;100740.00;5035565;28;20025;-80
2022/12/04 11:48:24;;;;;;;9.38;5.75;;;;;;;8.80;73.11;100655.03;5053502;28;20502;-80
2022/12/04 11:51:25;;;;;;;12.60;8.75;;;;;;;9.20;72.79;100721.56;5053736;28;20025;-80
2022/12/04 11:54:10;;;;;;;9.55;7.90;;;;;;;8.90;73.33;100674.28;5035751;28;20041;-80